sensor_id;sensor_type;location;lat;lon;timestamp;P1;durP1;ratioP1;P2;durP2;ratioP2
70547;SDS011;58099;43.406;3.698;2022-07-29T00:00:43;5.80;;;1.77;;
70547;SDS011;58099;43.406;3.698;2022-07-29T00:03:12;5.70;;;1.80;;
70547;SDS011;58099;43.406;3.698;2022-07-29T00:05:39;5.18;;;1.98;;
70547;SDS011;58099;43.406;3.698;2022-07-29T00:08:06;6.15;;;1.85;;
70547;SDS011;58099;43.406;3.698;2022-07-29T00:10:32;4.95;;;1.95;;
70547;SDS011;58099;43.406;3.698;2022-07-29T00:12:58;5.05;;;2.20;;
70547;SDS011;58099;43.406;3.698;2022-07-29T00:15:24;5.73;;;2.30;;
70547;SDS011;58099;43.406;3.698;2022-07-29T00:17:50;5.45;;;2.00;;
70547;SDS011;58099;43.406;3.698;2022-07-29T00:20:15;6.05;;;2.60;;
70547;SDS011;58099;43.406;3.698;2022-07-29T00:22:41;7.13;;;2.38;;
70547;SDS011;58099;43.406;3.698;2022-07-29T00:25:07;6.95;;;2.30;;
70547;SDS011;58099;43.406;3.698;2022-07-29T00:27:34;6.23;;;2.03;;
70547;SDS011;58099;43.406;3.698;2022-07-29T00:30:00;5.60;;;2.33;;
70547;SDS011;58099;43.406;3.698;2022-07-29T00:32:25;5.57;;;1.88;;
70547;SDS011;58099;43.406;3.698;2022-07-29T00:34:51;8.07;;;2.33;;
70547;SDS011;58099;43.406;3.698;2022-07-29T00:37:35;5.45;;;2.28;;
70547;SDS011;58099;43.406;3.698;2022-07-29T00:40:01;6.57;;;2.45;;
70547;SDS011;58099;43.406;3.698;2022-07-29T00:42:27;6.70;;;2.20;;
70547;SDS011;58099;43.406;3.698;2022-07-29T00:44:53;9.95;;;2.92;;
70547;SDS011;58099;43.406;3.698;2022-07-29T00:47:18;7.57;;;2.63;;
70547;SDS011;58099;43.406;3.698;2022-07-29T00:49:44;8.70;;;2.65;;
70547;SDS011;58099;43.406;3.698;2022-07-29T00:52:10;6.63;;;2.80;;
70547;SDS011;58099;43.406;3.698;2022-07-29T00:54:36;5.80;;;2.55;;
70547;SDS011;58099;43.406;3.698;2022-07-29T00:57:04;5.95;;;2.60;;
70547;SDS011;58099;43.406;3.698;2022-07-29T00:59:32;7.35;;;2.60;;
70547;SDS011;58099;43.406;3.698;2022-07-29T01:01:57;6.50;;;2.67;;
70547;SDS011;58099;43.406;3.698;2022-07-29T01:04:23;6.30;;;2.55;;
70547;SDS011;58099;43.406;3.698;2022-07-29T01:06:49;5.53;;;2.27;;
70547;SDS011;58099;43.406;3.698;2022-07-29T01:09:16;6.55;;;2.33;;
70547;SDS011;58099;43.406;3.698;2022-07-29T01:11:43;6.15;;;2.22;;
70547;SDS011;58099;43.406;3.698;2022-07-29T01:14:12;6.47;;;2.03;;
70547;SDS011;58099;43.406;3.698;2022-07-29T01:16:42;6.45;;;2.75;;
70547;SDS011;58099;43.406;3.698;2022-07-29T01:19:38;7.37;;;2.40;;
70547;SDS011;58099;43.406;3.698;2022-07-29T01:30:09;6.13;;;2.25;;
70547;SDS011;58099;43.406;3.698;2022-07-29T01:32:37;8.47;;;2.00;;
70547;SDS011;58099;43.406;3.698;2022-07-29T01:35:14;5.25;;;2.00;;
70547;SDS011;58099;43.406;3.698;2022-07-29T01:37:46;5.20;;;2.50;;
70547;SDS011;58099;43.406;3.698;2022-07-29T01:40:20;5.80;;;2.00;;
70547;SDS011;58099;43.406;3.698;2022-07-29T01:42:54;5.30;;;2.00;;
70547;SDS011;58099;43.406;3.698;2022-07-29T01:45:39;5.47;;;1.90;;
70547;SDS011;58099;43.406;3.698;2022-07-29T01:53:47;6.20;;;2.58;;
70547;SDS011;58099;43.406;3.698;2022-07-29T01:56:36;5.65;;;2.13;;
70547;SDS011;58099;43.406;3.698;2022-07-29T01:59:04;4.60;;;1.93;;
70547;SDS011;58099;43.406;3.698;2022-07-29T02:01:32;5.38;;;2.00;;
70547;SDS011;58099;43.406;3.698;2022-07-29T02:04:01;5.85;;;1.77;;
70547;SDS011;58099;43.406;3.698;2022-07-29T02:06:29;5.45;;;2.20;;
70547;SDS011;58099;43.406;3.698;2022-07-29T02:08:57;5.78;;;2.42;;
70547;SDS011;58099;43.406;3.698;2022-07-29T02:11:24;5.37;;;2.43;;
70547;SDS011;58099;43.406;3.698;2022-07-29T02:13:50;5.63;;;2.00;;
70547;SDS011;58099;43.406;3.698;2022-07-29T02:16:21;5.22;;;1.90;;
70547;SDS011;58099;43.406;3.698;2022-07-29T02:18:48;5.35;;;2.10;;
70547;SDS011;58099;43.406;3.698;2022-07-29T02:21:19;5.00;;;2.13;;
70547;SDS011;58099;43.406;3.698;2022-07-29T02:23:47;5.35;;;2.10;;
70547;SDS011;58099;43.406;3.698;2022-07-29T02:26:14;5.57;;;2.05;;
70547;SDS011;58099;43.406;3.698;2022-07-29T02:28:43;4.18;;;1.83;;
70547;SDS011;58099;43.406;3.698;2022-07-29T02:31:11;4.55;;;2.00;;
70547;SDS011;58099;43.406;3.698;2022-07-29T02:33:38;4.17;;;1.97;;
70547;SDS011;58099;43.406;3.698;2022-07-29T02:36:06;5.40;;;2.40;;
70547;SDS011;58099;43.406;3.698;2022-07-29T02:38:32;5.13;;;1.85;;
70547;SDS011;58099;43.406;3.698;2022-07-29T02:41:17;5.43;;;1.80;;
70547;SDS011;58099;43.406;3.698;2022-07-29T02:43:48;4.18;;;1.85;;
70547;SDS011;58099;43.406;3.698;2022-07-29T02:46:19;5.05;;;2.05;;
70547;SDS011;58099;43.406;3.698;2022-07-29T02:49:02;5.57;;;1.80;;
70547;SDS011;58099;43.406;3.698;2022-07-29T02:51:41;6.78;;;2.25;;
70547;SDS011;58099;43.406;3.698;2022-07-29T02:54:10;6.63;;;2.25;;
70547;SDS011;58099;43.406;3.698;2022-07-29T02:56:39;5.47;;;2.47;;
70547;SDS011;58099;43.406;3.698;2022-07-29T02:59:09;4.85;;;2.17;;
70547;SDS011;58099;43.406;3.698;2022-07-29T03:01:36;7.10;;;2.60;;
70547;SDS011;58099;43.406;3.698;2022-07-29T03:04:06;6.40;;;2.80;;
70547;SDS011;58099;43.406;3.698;2022-07-29T03:06:33;7.75;;;2.70;;
70547;SDS011;58099;43.406;3.698;2022-07-29T03:09:00;7.22;;;3.03;;
70547;SDS011;58099;43.406;3.698;2022-07-29T03:11:27;6.53;;;2.67;;
70547;SDS011;58099;43.406;3.698;2022-07-29T03:13:54;7.38;;;2.80;;
70547;SDS011;58099;43.406;3.698;2022-07-29T03:16:20;6.40;;;2.90;;
70547;SDS011;58099;43.406;3.698;2022-07-29T03:18:47;4.85;;;2.33;;
70547;SDS011;58099;43.406;3.698;2022-07-29T03:21:12;4.82;;;2.35;;
70547;SDS011;58099;43.406;3.698;2022-07-29T03:23:39;5.80;;;2.20;;
70547;SDS011;58099;43.406;3.698;2022-07-29T03:26:10;5.40;;;2.13;;
70547;SDS011;58099;43.406;3.698;2022-07-29T03:28:36;6.75;;;2.28;;
70547;SDS011;58099;43.406;3.698;2022-07-29T03:31:02;5.37;;;1.90;;
70547;SDS011;58099;43.406;3.698;2022-07-29T03:33:27;4.78;;;2.20;;
70547;SDS011;58099;43.406;3.698;2022-07-29T03:35:55;4.82;;;1.98;;
70547;SDS011;58099;43.406;3.698;2022-07-29T03:38:21;5.68;;;2.08;;
70547;SDS011;58099;43.406;3.698;2022-07-29T03:40:54;6.38;;;2.10;;
70547;SDS011;58099;43.406;3.698;2022-07-29T03:43:25;5.45;;;2.22;;
70547;SDS011;58099;43.406;3.698;2022-07-29T03:45:58;5.30;;;2.10;;
70547;SDS011;58099;43.406;3.698;2022-07-29T03:48:25;5.57;;;1.97;;
70547;SDS011;58099;43.406;3.698;2022-07-29T03:50:54;5.13;;;1.55;;
70547;SDS011;58099;43.406;3.698;2022-07-29T03:53:20;6.07;;;2.08;;
70547;SDS011;58099;43.406;3.698;2022-07-29T03:55:48;5.00;;;1.80;;
70547;SDS011;58099;43.406;3.698;2022-07-29T03:58:17;4.78;;;1.83;;
70547;SDS011;58099;43.406;3.698;2022-07-29T04:00:44;4.90;;;1.70;;
70547;SDS011;58099;43.406;3.698;2022-07-29T04:03:11;3.88;;;1.90;;
70547;SDS011;58099;43.406;3.698;2022-07-29T04:05:37;5.22;;;2.00;;
70547;SDS011;58099;43.406;3.698;2022-07-29T04:08:03;6.28;;;2.00;;
70547;SDS011;58099;43.406;3.698;2022-07-29T04:10:29;6.60;;;1.88;;
70547;SDS011;58099;43.406;3.698;2022-07-29T04:12:55;5.85;;;2.08;;
70547;SDS011;58099;43.406;3.698;2022-07-29T04:15:20;4.60;;;2.10;;
70547;SDS011;58099;43.406;3.698;2022-07-29T04:17:46;4.75;;;2.35;;
70547;SDS011;58099;43.406;3.698;2022-07-29T04:20:12;5.77;;;2.00;;
70547;SDS011;58099;43.406;3.698;2022-07-29T04:22:38;4.72;;;2.10;;
70547;SDS011;58099;43.406;3.698;2022-07-29T04:25:04;6.30;;;2.30;;
70547;SDS011;58099;43.406;3.698;2022-07-29T04:27:30;6.72;;;2.17;;
70547;SDS011;58099;43.406;3.698;2022-07-29T04:29:56;5.13;;;2.40;;
70547;SDS011;58099;43.406;3.698;2022-07-29T04:32:22;5.70;;;2.00;;
70547;SDS011;58099;43.406;3.698;2022-07-29T04:34:48;4.82;;;2.20;;
70547;SDS011;58099;43.406;3.698;2022-07-29T04:37:14;4.87;;;2.50;;
70547;SDS011;58099;43.406;3.698;2022-07-29T04:39:40;5.38;;;2.17;;
70547;SDS011;58099;43.406;3.698;2022-07-29T04:42:05;6.07;;;2.40;;
70547;SDS011;58099;43.406;3.698;2022-07-29T04:44:31;7.60;;;2.20;;
70547;SDS011;58099;43.406;3.698;2022-07-29T04:46:57;7.50;;;2.27;;
70547;SDS011;58099;43.406;3.698;2022-07-29T04:49:22;6.15;;;2.30;;
70547;SDS011;58099;43.406;3.698;2022-07-29T04:51:48;6.20;;;2.57;;
70547;SDS011;58099;43.406;3.698;2022-07-29T04:54:14;5.93;;;2.10;;
70547;SDS011;58099;43.406;3.698;2022-07-29T04:56:40;6.93;;;3.17;;
70547;SDS011;58099;43.406;3.698;2022-07-29T04:59:06;7.40;;;2.90;;
70547;SDS011;58099;43.406;3.698;2022-07-29T05:01:32;7.28;;;2.58;;
70547;SDS011;58099;43.406;3.698;2022-07-29T05:03:58;7.40;;;2.73;;
70547;SDS011;58099;43.406;3.698;2022-07-29T05:06:23;7.80;;;2.88;;
70547;SDS011;58099;43.406;3.698;2022-07-29T05:08:49;9.20;;;2.87;;
70547;SDS011;58099;43.406;3.698;2022-07-29T05:11:15;7.15;;;2.50;;
70547;SDS011;58099;43.406;3.698;2022-07-29T05:13:40;5.90;;;2.57;;
70547;SDS011;58099;43.406;3.698;2022-07-29T05:16:07;6.85;;;2.22;;
70547;SDS011;58099;43.406;3.698;2022-07-29T05:18:33;7.18;;;2.80;;
70547;SDS011;58099;43.406;3.698;2022-07-29T05:20:59;6.25;;;2.75;;
70547;SDS011;58099;43.406;3.698;2022-07-29T05:23:24;6.75;;;2.63;;
70547;SDS011;58099;43.406;3.698;2022-07-29T05:25:50;5.97;;;2.30;;
70547;SDS011;58099;43.406;3.698;2022-07-29T05:28:16;7.30;;;2.50;;
70547;SDS011;58099;43.406;3.698;2022-07-29T05:30:42;6.00;;;2.93;;
70547;SDS011;58099;43.406;3.698;2022-07-29T05:33:09;7.25;;;2.63;;
70547;SDS011;58099;43.406;3.698;2022-07-29T05:35:35;8.45;;;2.95;;
70547;SDS011;58099;43.406;3.698;2022-07-29T05:38:02;4.68;;;2.47;;
70547;SDS011;58099;43.406;3.698;2022-07-29T05:40:28;6.53;;;2.70;;
70547;SDS011;58099;43.406;3.698;2022-07-29T05:42:54;6.43;;;2.97;;
70547;SDS011;58099;43.406;3.698;2022-07-29T05:45:20;8.57;;;2.78;;
70547;SDS011;58099;43.406;3.698;2022-07-29T05:47:45;7.03;;;2.50;;
70547;SDS011;58099;43.406;3.698;2022-07-29T05:50:11;6.13;;;2.88;;
70547;SDS011;58099;43.406;3.698;2022-07-29T05:52:37;5.97;;;2.33;;
70547;SDS011;58099;43.406;3.698;2022-07-29T05:55:04;9.25;;;3.80;;
70547;SDS011;58099;43.406;3.698;2022-07-29T05:57:30;7.78;;;2.40;;
70547;SDS011;58099;43.406;3.698;2022-07-29T05:59:56;7.47;;;2.17;;
70547;SDS011;58099;43.406;3.698;2022-07-29T06:02:22;9.63;;;2.70;;
70547;SDS011;58099;43.406;3.698;2022-07-29T06:04:48;6.83;;;2.50;;
70547;SDS011;58099;43.406;3.698;2022-07-29T06:07:14;7.78;;;2.50;;
70547;SDS011;58099;43.406;3.698;2022-07-29T06:09:41;7.47;;;2.33;;
70547;SDS011;58099;43.406;3.698;2022-07-29T06:12:07;5.90;;;2.45;;
70547;SDS011;58099;43.406;3.698;2022-07-29T06:14:33;6.65;;;2.17;;
70547;SDS011;58099;43.406;3.698;2022-07-29T06:16:59;8.68;;;2.90;;
70547;SDS011;58099;43.406;3.698;2022-07-29T06:19:24;6.57;;;1.95;;
70547;SDS011;58099;43.406;3.698;2022-07-29T06:21:50;9.18;;;3.00;;
70547;SDS011;58099;43.406;3.698;2022-07-29T06:24:16;5.68;;;2.40;;
70547;SDS011;58099;43.406;3.698;2022-07-29T06:26:42;6.18;;;2.30;;
70547;SDS011;58099;43.406;3.698;2022-07-29T06:29:08;6.15;;;2.35;;
70547;SDS011;58099;43.406;3.698;2022-07-29T06:31:38;6.82;;;2.33;;
70547;SDS011;58099;43.406;3.698;2022-07-29T06:34:03;6.60;;;2.55;;
70547;SDS011;58099;43.406;3.698;2022-07-29T06:36:29;10.13;;;3.67;;
70547;SDS011;58099;43.406;3.698;2022-07-29T06:38:55;12.38;;;4.05;;
70547;SDS011;58099;43.406;3.698;2022-07-29T06:41:21;7.60;;;2.75;;
70547;SDS011;58099;43.406;3.698;2022-07-29T06:43:48;8.33;;;2.20;;
70547;SDS011;58099;43.406;3.698;2022-07-29T06:46:14;8.05;;;2.70;;
70547;SDS011;58099;43.406;3.698;2022-07-29T06:48:42;7.90;;;2.72;;
70547;SDS011;58099;43.406;3.698;2022-07-29T06:51:08;9.77;;;2.70;;
70547;SDS011;58099;43.406;3.698;2022-07-29T06:53:36;10.70;;;2.80;;
70547;SDS011;58099;43.406;3.698;2022-07-29T06:56:03;6.73;;;2.27;;
70547;SDS011;58099;43.406;3.698;2022-07-29T06:58:30;6.13;;;2.70;;
70547;SDS011;58099;43.406;3.698;2022-07-29T07:00:57;5.32;;;2.42;;
70547;SDS011;58099;43.406;3.698;2022-07-29T07:03:23;6.78;;;2.42;;
70547;SDS011;58099;43.406;3.698;2022-07-29T07:05:49;5.65;;;2.00;;
70547;SDS011;58099;43.406;3.698;2022-07-29T07:08:16;7.93;;;2.60;;
70547;SDS011;58099;43.406;3.698;2022-07-29T07:10:42;7.97;;;2.97;;
70547;SDS011;58099;43.406;3.698;2022-07-29T07:13:09;6.35;;;2.80;;
70547;SDS011;58099;43.406;3.698;2022-07-29T07:15:35;8.30;;;3.33;;
70547;SDS011;58099;43.406;3.698;2022-07-29T07:18:01;7.45;;;2.50;;
70547;SDS011;58099;43.406;3.698;2022-07-29T07:20:28;8.27;;;2.75;;
70547;SDS011;58099;43.406;3.698;2022-07-29T07:22:53;6.53;;;2.70;;
70547;SDS011;58099;43.406;3.698;2022-07-29T07:25:19;5.87;;;2.23;;
70547;SDS011;58099;43.406;3.698;2022-07-29T07:27:45;5.78;;;2.25;;
70547;SDS011;58099;43.406;3.698;2022-07-29T07:30:11;7.05;;;2.42;;
70547;SDS011;58099;43.406;3.698;2022-07-29T07:32:38;5.07;;;2.30;;
70547;SDS011;58099;43.406;3.698;2022-07-29T07:35:04;5.85;;;2.50;;
70547;SDS011;58099;43.406;3.698;2022-07-29T07:37:32;8.48;;;3.00;;
70547;SDS011;58099;43.406;3.698;2022-07-29T07:39:57;8.88;;;3.13;;
70547;SDS011;58099;43.406;3.698;2022-07-29T07:42:23;7.80;;;2.80;;
70547;SDS011;58099;43.406;3.698;2022-07-29T07:44:49;6.05;;;2.72;;
70547;SDS011;58099;43.406;3.698;2022-07-29T07:47:15;8.30;;;2.70;;
70547;SDS011;58099;43.406;3.698;2022-07-29T07:49:45;8.98;;;2.63;;
70547;SDS011;58099;43.406;3.698;2022-07-29T07:52:15;9.83;;;3.33;;
70547;SDS011;58099;43.406;3.698;2022-07-29T07:54:42;9.90;;;3.72;;
70547;SDS011;58099;43.406;3.698;2022-07-29T07:57:09;8.45;;;3.03;;
70547;SDS011;58099;43.406;3.698;2022-07-29T07:59:36;8.95;;;2.88;;
70547;SDS011;58099;43.406;3.698;2022-07-29T08:02:01;6.87;;;3.00;;
70547;SDS011;58099;43.406;3.698;2022-07-29T08:04:28;6.45;;;2.58;;
70547;SDS011;58099;43.406;3.698;2022-07-29T08:06:54;5.47;;;2.47;;
70547;SDS011;58099;43.406;3.698;2022-07-29T08:09:20;10.57;;;2.95;;
70547;SDS011;58099;43.406;3.698;2022-07-29T08:11:47;6.93;;;2.65;;
70547;SDS011;58099;43.406;3.698;2022-07-29T08:14:13;7.18;;;2.70;;
70547;SDS011;58099;43.406;3.698;2022-07-29T08:16:39;8.90;;;2.65;;
70547;SDS011;58099;43.406;3.698;2022-07-29T08:19:06;8.10;;;3.27;;
70547;SDS011;58099;43.406;3.698;2022-07-29T08:21:32;9.02;;;2.97;;
70547;SDS011;58099;43.406;3.698;2022-07-29T08:23:58;6.68;;;3.05;;
70547;SDS011;58099;43.406;3.698;2022-07-29T08:26:42;7.22;;;2.78;;
70547;SDS011;58099;43.406;3.698;2022-07-29T08:29:08;8.27;;;3.72;;
70547;SDS011;58099;43.406;3.698;2022-07-29T08:31:35;7.25;;;3.00;;
70547;SDS011;58099;43.406;3.698;2022-07-29T08:34:02;6.68;;;2.75;;
70547;SDS011;58099;43.406;3.698;2022-07-29T08:36:28;8.75;;;2.67;;
70547;SDS011;58099;43.406;3.698;2022-07-29T08:38:54;7.97;;;3.15;;
70547;SDS011;58099;43.406;3.698;2022-07-29T08:41:21;10.53;;;2.60;;
70547;SDS011;58099;43.406;3.698;2022-07-29T08:43:47;9.65;;;3.20;;
70547;SDS011;58099;43.406;3.698;2022-07-29T08:46:14;8.73;;;2.40;;
70547;SDS011;58099;43.406;3.698;2022-07-29T08:48:42;10.38;;;3.03;;
70547;SDS011;58099;43.406;3.698;2022-07-29T08:51:11;7.03;;;3.10;;
70547;SDS011;58099;43.406;3.698;2022-07-29T08:53:48;7.82;;;2.75;;
70547;SDS011;58099;43.406;3.698;2022-07-29T08:56:15;7.63;;;3.00;;
70547;SDS011;58099;43.406;3.698;2022-07-29T08:58:43;6.60;;;2.60;;
70547;SDS011;58099;43.406;3.698;2022-07-29T09:01:10;5.70;;;2.70;;
70547;SDS011;58099;43.406;3.698;2022-07-29T09:03:39;6.70;;;2.58;;
70547;SDS011;58099;43.406;3.698;2022-07-29T09:06:06;8.60;;;2.78;;
70547;SDS011;58099;43.406;3.698;2022-07-29T09:08:32;6.75;;;2.58;;
70547;SDS011;58099;43.406;3.698;2022-07-29T09:11:00;6.63;;;2.60;;
70547;SDS011;58099;43.406;3.698;2022-07-29T09:13:26;5.10;;;2.53;;
70547;SDS011;58099;43.406;3.698;2022-07-29T09:15:52;8.48;;;3.10;;
70547;SDS011;58099;43.406;3.698;2022-07-29T09:21:13;7.00;;;3.08;;
70547;SDS011;58099;43.406;3.698;2022-07-29T09:24:00;10.52;;;3.90;;
70547;SDS011;58099;43.406;3.698;2022-07-29T09:26:30;9.00;;;3.95;;
70547;SDS011;58099;43.406;3.698;2022-07-29T09:28:56;9.98;;;3.83;;
70547;SDS011;58099;43.406;3.698;2022-07-29T09:31:32;9.25;;;3.30;;
70547;SDS011;58099;43.406;3.698;2022-07-29T09:33:59;11.00;;;3.72;;
70547;SDS011;58099;43.406;3.698;2022-07-29T09:36:25;10.18;;;4.20;;
70547;SDS011;58099;43.406;3.698;2022-07-29T09:38:58;8.30;;;3.67;;
70547;SDS011;58099;43.406;3.698;2022-07-29T09:41:25;9.10;;;3.30;;
70547;SDS011;58099;43.406;3.698;2022-07-29T09:43:55;7.28;;;3.45;;
70547;SDS011;58099;43.406;3.698;2022-07-29T09:46:23;9.25;;;3.55;;
70547;SDS011;58099;43.406;3.698;2022-07-29T09:51:34;6.68;;;3.80;;
70547;SDS011;58099;43.406;3.698;2022-07-29T09:54:00;8.05;;;4.25;;
70547;SDS011;58099;43.406;3.698;2022-07-29T09:56:41;9.55;;;3.97;;
70547;SDS011;58099;43.406;3.698;2022-07-29T09:59:08;9.63;;;4.30;;
70547;SDS011;58099;43.406;3.698;2022-07-29T10:01:36;10.88;;;4.75;;
70547;SDS011;58099;43.406;3.698;2022-07-29T10:04:02;10.30;;;4.32;;
70547;SDS011;58099;43.406;3.698;2022-07-29T10:06:28;11.43;;;4.72;;
70547;SDS011;58099;43.406;3.698;2022-07-29T10:08:54;11.20;;;4.32;;
70547;SDS011;58099;43.406;3.698;2022-07-29T10:11:20;9.87;;;4.60;;
70547;SDS011;58099;43.406;3.698;2022-07-29T10:13:46;10.15;;;4.38;;
70547;SDS011;58099;43.406;3.698;2022-07-29T10:16:14;9.80;;;4.03;;
70547;SDS011;58099;43.406;3.698;2022-07-29T10:18:43;12.45;;;4.32;;
70547;SDS011;58099;43.406;3.698;2022-07-29T10:21:09;7.13;;;3.70;;
70547;SDS011;58099;43.406;3.698;2022-07-29T10:23:36;9.40;;;4.05;;
70547;SDS011;58099;43.406;3.698;2022-07-29T10:26:03;10.35;;;4.53;;
70547;SDS011;58099;43.406;3.698;2022-07-29T10:28:30;8.38;;;4.30;;
70547;SDS011;58099;43.406;3.698;2022-07-29T10:31:04;10.48;;;5.07;;
70547;SDS011;58099;43.406;3.698;2022-07-29T10:33:55;8.37;;;3.67;;
70547;SDS011;58099;43.406;3.698;2022-07-29T10:44:23;6.28;;;3.00;;
70547;SDS011;58099;43.406;3.698;2022-07-29T10:46:50;5.87;;;2.90;;
70547;SDS011;58099;43.406;3.698;2022-07-29T10:54:40;7.80;;;3.45;;
70547;SDS011;58099;43.406;3.698;2022-07-29T10:59:49;6.07;;;2.43;;
70547;SDS011;58099;43.406;3.698;2022-07-29T11:05:05;7.68;;;3.97;;
70547;SDS011;58099;43.406;3.698;2022-07-29T11:07:33;8.80;;;3.78;;
70547;SDS011;58099;43.406;3.698;2022-07-29T11:15:07;11.23;;;5.35;;
70547;SDS011;58099;43.406;3.698;2022-07-29T11:20:35;6.05;;;3.60;;
70547;SDS011;58099;43.406;3.698;2022-07-29T11:23:20;5.82;;;3.28;;
70547;SDS011;58099;43.406;3.698;2022-07-29T11:28:50;5.75;;;2.67;;
70547;SDS011;58099;43.406;3.698;2022-07-29T11:31:19;5.40;;;2.65;;
70547;SDS011;58099;43.406;3.698;2022-07-29T11:34:27;5.55;;;2.45;;
70547;SDS011;58099;43.406;3.698;2022-07-29T11:39:33;5.03;;;1.93;;
70547;SDS011;58099;43.406;3.698;2022-07-29T11:44:54;4.57;;;2.20;;
70547;SDS011;58099;43.406;3.698;2022-07-29T11:47:21;4.95;;;2.20;;
70547;SDS011;58099;43.406;3.698;2022-07-29T11:49:47;5.70;;;2.80;;
70547;SDS011;58099;43.406;3.698;2022-07-29T11:52:16;6.00;;;2.80;;
70547;SDS011;58099;43.406;3.698;2022-07-29T11:54:42;4.72;;;2.67;;
70547;SDS011;58099;43.406;3.698;2022-07-29T11:57:08;4.25;;;2.33;;
70547;SDS011;58099;43.406;3.698;2022-07-29T11:59:41;4.55;;;2.20;;
70547;SDS011;58099;43.406;3.698;2022-07-29T12:02:08;4.10;;;1.97;;
70547;SDS011;58099;43.406;3.698;2022-07-29T12:04:56;4.50;;;2.40;;
70547;SDS011;58099;43.406;3.698;2022-07-29T12:07:28;5.80;;;2.38;;
70547;SDS011;58099;43.406;3.698;2022-07-29T12:09:55;4.60;;;2.53;;
70547;SDS011;58099;43.406;3.698;2022-07-29T12:12:21;5.90;;;2.20;;
70547;SDS011;58099;43.406;3.698;2022-07-29T12:14:48;5.13;;;2.23;;
70547;SDS011;58099;43.406;3.698;2022-07-29T12:20:10;6.47;;;2.78;;
70547;SDS011;58099;43.406;3.698;2022-07-29T12:22:39;6.40;;;3.78;;
70547;SDS011;58099;43.406;3.698;2022-07-29T12:25:08;9.65;;;4.97;;
70547;SDS011;58099;43.406;3.698;2022-07-29T12:27:44;9.37;;;5.73;;
70547;SDS011;58099;43.406;3.698;2022-07-29T12:30:14;8.20;;;4.95;;
70547;SDS011;58099;43.406;3.698;2022-07-29T12:32:44;8.48;;;6.85;;
70547;SDS011;58099;43.406;3.698;2022-07-29T12:35:12;8.20;;;5.38;;
70547;SDS011;58099;43.406;3.698;2022-07-29T12:37:42;7.80;;;6.28;;
70547;SDS011;58099;43.406;3.698;2022-07-29T12:40:10;10.73;;;5.27;;
70547;SDS011;58099;43.406;3.698;2022-07-29T12:42:38;8.85;;;4.72;;
70547;SDS011;58099;43.406;3.698;2022-07-29T12:45:04;10.73;;;5.78;;
70547;SDS011;58099;43.406;3.698;2022-07-29T12:47:31;11.60;;;6.07;;
70547;SDS011;58099;43.406;3.698;2022-07-29T12:50:13;8.75;;;5.40;;
70547;SDS011;58099;43.406;3.698;2022-07-29T12:52:42;10.13;;;5.10;;
70547;SDS011;58099;43.406;3.698;2022-07-29T12:55:09;10.73;;;4.60;;
70547;SDS011;58099;43.406;3.698;2022-07-29T12:57:47;7.78;;;4.72;;
70547;SDS011;58099;43.406;3.698;2022-07-29T13:00:21;9.88;;;6.47;;
70547;SDS011;58099;43.406;3.698;2022-07-29T13:02:54;10.18;;;8.30;;
70547;SDS011;58099;43.406;3.698;2022-07-29T13:05:21;10.83;;;8.33;;
70547;SDS011;58099;43.406;3.698;2022-07-29T13:07:47;11.18;;;8.75;;
70547;SDS011;58099;43.406;3.698;2022-07-29T13:10:16;11.90;;;8.20;;
70547;SDS011;58099;43.406;3.698;2022-07-29T13:15:33;11.80;;;8.85;;
70547;SDS011;58099;43.406;3.698;2022-07-29T13:18:00;14.13;;;11.00;;
70547;SDS011;58099;43.406;3.698;2022-07-29T13:20:27;11.90;;;7.47;;
70547;SDS011;58099;43.406;3.698;2022-07-29T13:22:57;10.90;;;7.10;;
70547;SDS011;58099;43.406;3.698;2022-07-29T13:25:28;10.85;;;6.47;;
70547;SDS011;58099;43.406;3.698;2022-07-29T13:27:57;9.15;;;5.38;;
70547;SDS011;58099;43.406;3.698;2022-07-29T13:30:24;7.90;;;4.90;;
70547;SDS011;58099;43.406;3.698;2022-07-29T13:32:51;8.02;;;5.05;;
70547;SDS011;58099;43.406;3.698;2022-07-29T13:35:17;7.57;;;4.77;;
70547;SDS011;58099;43.406;3.698;2022-07-29T13:37:44;8.70;;;6.65;;
70547;SDS011;58099;43.406;3.698;2022-07-29T13:40:10;11.20;;;6.82;;
70547;SDS011;58099;43.406;3.698;2022-07-29T13:42:37;7.75;;;5.50;;
70547;SDS011;58099;43.406;3.698;2022-07-29T13:45:04;10.93;;;6.68;;
70547;SDS011;58099;43.406;3.698;2022-07-29T13:47:31;11.00;;;7.87;;
70547;SDS011;58099;43.406;3.698;2022-07-29T13:49:57;8.45;;;5.85;;
70547;SDS011;58099;43.406;3.698;2022-07-29T13:52:23;10.27;;;5.67;;
70547;SDS011;58099;43.406;3.698;2022-07-29T13:54:48;8.55;;;5.40;;
70547;SDS011;58099;43.406;3.698;2022-07-29T13:57:14;8.13;;;5.10;;
70547;SDS011;58099;43.406;3.698;2022-07-29T13:59:41;8.43;;;4.80;;
70547;SDS011;58099;43.406;3.698;2022-07-29T14:02:07;6.93;;;4.50;;
70547;SDS011;58099;43.406;3.698;2022-07-29T14:04:34;7.50;;;4.47;;
70547;SDS011;58099;43.406;3.698;2022-07-29T14:06:59;8.77;;;4.47;;
70547;SDS011;58099;43.406;3.698;2022-07-29T14:09:25;7.07;;;3.85;;
70547;SDS011;58099;43.406;3.698;2022-07-29T14:11:51;6.38;;;4.00;;
70547;SDS011;58099;43.406;3.698;2022-07-29T14:14:17;6.70;;;3.85;;
70547;SDS011;58099;43.406;3.698;2022-07-29T14:16:44;5.27;;;3.10;;
70547;SDS011;58099;43.406;3.698;2022-07-29T14:19:11;7.18;;;2.90;;
70547;SDS011;58099;43.406;3.698;2022-07-29T14:21:37;5.95;;;3.55;;
70547;SDS011;58099;43.406;3.698;2022-07-29T14:24:04;6.90;;;3.28;;
70547;SDS011;58099;43.406;3.698;2022-07-29T14:26:31;4.93;;;2.78;;
70547;SDS011;58099;43.406;3.698;2022-07-29T14:28:57;6.03;;;2.50;;
70547;SDS011;58099;43.406;3.698;2022-07-29T14:31:22;5.13;;;2.50;;
70547;SDS011;58099;43.406;3.698;2022-07-29T14:33:48;5.85;;;2.72;;
70547;SDS011;58099;43.406;3.698;2022-07-29T14:36:14;5.55;;;2.70;;
70547;SDS011;58099;43.406;3.698;2022-07-29T14:38:40;6.23;;;2.67;;
70547;SDS011;58099;43.406;3.698;2022-07-29T14:41:06;4.68;;;2.40;;
70547;SDS011;58099;43.406;3.698;2022-07-29T14:43:33;4.45;;;2.53;;
70547;SDS011;58099;43.406;3.698;2022-07-29T14:45:59;4.93;;;2.50;;
70547;SDS011;58099;43.406;3.698;2022-07-29T14:48:25;4.75;;;2.15;;
70547;SDS011;58099;43.406;3.698;2022-07-29T14:50:51;4.90;;;2.20;;
70547;SDS011;58099;43.406;3.698;2022-07-29T14:53:17;4.43;;;2.20;;
70547;SDS011;58099;43.406;3.698;2022-07-29T14:55:43;4.28;;;2.33;;
70547;SDS011;58099;43.406;3.698;2022-07-29T14:58:09;4.38;;;2.10;;
70547;SDS011;58099;43.406;3.698;2022-07-29T15:00:34;5.30;;;2.17;;
70547;SDS011;58099;43.406;3.698;2022-07-29T15:03:02;5.18;;;2.30;;
70547;SDS011;58099;43.406;3.698;2022-07-29T15:05:28;5.10;;;2.33;;
70547;SDS011;58099;43.406;3.698;2022-07-29T15:07:55;4.70;;;2.13;;
70547;SDS011;58099;43.406;3.698;2022-07-29T15:10:20;4.57;;;2.17;;
70547;SDS011;58099;43.406;3.698;2022-07-29T15:12:46;4.57;;;2.13;;
70547;SDS011;58099;43.406;3.698;2022-07-29T15:15:12;4.17;;;2.00;;
70547;SDS011;58099;43.406;3.698;2022-07-29T15:17:38;5.60;;;2.53;;
70547;SDS011;58099;43.406;3.698;2022-07-29T15:20:04;4.87;;;2.40;;
70547;SDS011;58099;43.406;3.698;2022-07-29T15:22:30;5.70;;;2.30;;
70547;SDS011;58099;43.406;3.698;2022-07-29T15:24:56;4.10;;;2.22;;
70547;SDS011;58099;43.406;3.698;2022-07-29T15:27:21;4.40;;;1.80;;
70547;SDS011;58099;43.406;3.698;2022-07-29T15:29:47;5.45;;;2.05;;
70547;SDS011;58099;43.406;3.698;2022-07-29T15:32:13;4.28;;;1.70;;
70547;SDS011;58099;43.406;3.698;2022-07-29T15:34:39;4.32;;;1.90;;
70547;SDS011;58099;43.406;3.698;2022-07-29T15:37:05;4.07;;;1.83;;
70547;SDS011;58099;43.406;3.698;2022-07-29T15:39:31;4.60;;;1.60;;
70547;SDS011;58099;43.406;3.698;2022-07-29T15:41:57;4.75;;;1.85;;
70547;SDS011;58099;43.406;3.698;2022-07-29T15:44:24;4.15;;;1.70;;
70547;SDS011;58099;43.406;3.698;2022-07-29T15:46:50;4.00;;;1.60;;
70547;SDS011;58099;43.406;3.698;2022-07-29T15:49:32;4.00;;;1.40;;